Time;durP1;ratioP1;P1;durP2;ratioP2;P2;SDS_P1;SDS_P2;PMS_P1;PMS_P2;Temp;Humidity;BMP_temperature;BMP_pressure;BME280_temperature;BME280_humidity;BME280_pressure;Samples;Min_cycle;Max_cycle;Signal;HPM_P1;HPM_P2
2022/01/19 00:03:07;;;;;;;63.70;27.30;;;;;;;-0.87;83.48;100373.02;220928;1271;22543;-71
2022/01/19 00:08:40;;;;;;;64.00;27.20;;;;;;;-0.84;83.39;100367.13;220953;1271;24271;-70
2022/01/19 00:14:30;;;;;;;55.30;23.20;;;;;;;-0.80;83.48;100362.34;220616;1270;22947;-70
2022/01/19 00:19:37;;;;;;;64.00;26.60;;;;;;;-0.77;83.22;100359.16;220635;1271;25602;-71
2022/01/19 00:25:09;;;;;;;65.50;26.60;;;;;;;-0.73;83.53;100353.58;220392;1271;22597;-71
2022/01/19 00:30:35;;;;;;;70.60;25.90;;;;;;;-0.67;83.12;100348.36;220419;1270;24241;-71
2022/01/19 00:36:20;;;;;;;66.80;26.60;;;;;;;-0.63;83.20;100352.84;219812;1271;25317;-70
2022/01/19 00:41:33;;;;;;;58.20;22.10;;;;;;;-0.60;83.02;100350.48;219796;1270;25549;-71
2022/01/19 00:46:48;;;;;;;57.70;23.10;;;;;;;-0.59;83.08;100355.31;220388;1271;22566;-72
2022/01/19 00:51:53;;;;;;;61.10;22.60;;;;;;;-0.58;83.01;100357.83;220780;1271;22541;-71
2022/01/19 00:57:14;;;;;;;59.80;24.70;;;;;;;-0.56;83.17;100363.41;220609;1271;25237;-71
2022/01/19 01:02:31;;;;;;;60.60;23.60;;;;;;;-0.53;82.79;100359.02;220968;1271;22636;-72
2022/01/19 01:07:43;;;;;;;38.90;17.30;;;;;;;-0.51;83.05;100347.61;220814;1271;22551;-71
2022/01/19 01:18:54;;;;;;;58.50;24.20;;;;;;;-0.43;82.63;100320.46;220348;1271;22674;-71
2022/01/19 01:24:18;;;;;;;52.30;21.90;;;;;;;-0.41;82.93;100305.46;220534;1271;24329;-71
2022/01/19 01:30:29;;;;;;;;;;;;;;;;;;;;;
2022/01/19 01:35:32;;;;;;;62.90;23.30;;;;;;;-0.40;82.45;100274.35;220419;1271;22737;-71
2022/01/19 01:41:29;;;;;;;57.90;21.80;;;;;;;-0.38;82.50;100249.85;220527;1270;24409;-72
2022/01/19 01:47:26;;;;;;;52.30;20.10;;;;;;;-0.38;82.48;100234.89;220606;1269;24413;-71
2022/01/19 01:58:28;;;;;;;54.10;21.90;;;;;;;-0.32;82.38;100195.77;219280;1271;22560;-71
2022/01/19 02:04:08;;;;;;;53.30;21.40;;;;;;;-0.28;82.64;100197.31;220525;1271;25550;-71
2022/01/19 02:09:36;;;;;;;;;;;;;;;;;;;;;
2022/01/19 02:26:20;;;;;;;57.50;22.50;;;;;;;-0.23;81.97;100201.42;220441;1271;23606;-71
2022/01/19 02:42:55;;;;;;;31.10;13.50;;;;;;;-0.56;81.75;100196.48;220744;1270;25438;-71
2022/01/19 02:53:48;;;;;;;32.90;14.10;;;;;;;-0.68;82.22;100186.53;220670;1271;25406;-71
2022/01/19 03:11:56;;;;;;;36.60;15.00;;;;;;;-0.87;82.43;100133.92;220681;1271;24224;-71
2022/01/19 03:17:03;;;;;;;32.40;13.90;;;;;;;-0.98;82.18;100125.66;220530;1271;25761;-71
2022/01/19 03:22:19;;;;;;;38.60;14.60;;;;;;;-1.10;82.50;100131.19;220568;1271;25670;-72
2022/01/19 03:27:57;;;;;;;;;;;;;;;;;;;;;
2022/01/19 03:33:58;;;;;;;40.80;17.90;;;;;;;-1.21;82.89;100132.27;220532;1271;24285;-71
2022/01/19 03:39:16;;;;;;;42.80;17.70;;;;;;;-1.28;83.17;100126.58;220570;1271;24431;-71
2022/01/19 03:44:33;;;;;;;38.80;16.60;;;;;;;-1.36;83.31;100119.88;219917;1271;22786;-70
2022/01/19 03:49:49;;;;;;;40.40;19.10;;;;;;;-1.41;83.30;100123.52;220661;1271;24658;-70
2022/01/19 03:56:01;;;;;;;38.10;16.60;;;;;;;-1.40;83.80;100121.09;219301;1271;24399;-70
2022/01/19 04:01:29;;;;;;;46.20;20.00;;;;;;;-1.38;83.72;100119.13;219578;1271;22564;-72
2022/01/19 04:06:54;;;;;;;61.80;26.50;;;;;;;-1.39;83.75;100113.08;219860;1271;22553;-70
2022/01/19 04:12:27;;;;;;;51.80;21.30;;;;;;;-1.35;83.79;100105.17;219413;1271;25361;-69
2022/01/19 04:17:51;;;;;;;63.70;25.90;;;;;;;-1.40;83.57;100094.55;219539;1271;23140;-70
2022/01/19 04:23:17;;;;;;;61.60;25.80;;;;;;;-1.44;83.73;100091.29;220393;1271;22723;-69
2022/01/19 04:28:29;;;;;;;44.60;22.20;;;;;;;-1.49;83.75;100082.10;219736;1271;22563;-71
2022/01/19 04:33:44;;;;;;;;;;;;;;;;;;;;;
2022/01/19 05:06:17;;;;;;;68.80;29.90;;;;;;;-2.23;83.97;100028.46;219599;1271;22716;-69
2022/01/19 05:17:14;;;;;;;68.60;29.20;;;;;;;-2.46;83.83;100018.98;219385;1271;22562;-68
2022/01/19 05:22:22;;;;;;;61.70;27.30;;;;;;;-2.55;84.26;100017.74;218925;1271;25384;-68
2022/01/19 05:27:30;;;;;;;75.30;30.70;;;;;;;-2.64;84.22;100010.44;219551;1271;24394;-68
2022/01/19 05:32:39;;;;;;;53.40;25.40;;;;;;;-2.71;84.29;100001.61;219485;1271;22837;-68
2022/01/19 05:37:48;;;;;;;54.00;25.90;;;;;;;-2.79;84.47;99997.48;219823;1271;22625;-70
2022/01/19 05:43:04;;;;;;;55.00;23.80;;;;;;;-2.87;84.68;99985.04;219738;1271;24247;-69
2022/01/19 05:48:11;;;;;;;53.30;22.80;;;;;;;-2.94;84.88;99976.52;220535;1271;22563;-68
2022/01/19 05:53:18;;;;;;;63.30;24.00;;;;;;;-3.02;84.71;99962.88;219904;1271;24803;-69
2022/01/19 05:58:27;;;;;;;67.30;26.60;;;;;;;-3.08;84.85;99957.10;220259;1271;22624;-69
2022/01/19 06:03:44;;;;;;;56.40;22.10;;;;;;;-3.14;84.95;99960.52;219865;1271;22649;-70
2022/01/19 06:09:09;;;;;;;60.00;25.10;;;;;;;-3.16;85.02;99971.25;219642;1271;25354;-68
2022/01/19 06:14:24;;;;;;;61.60;23.50;;;;;;;-3.20;84.94;99969.08;219873;1271;22605;-70
2022/01/19 06:19:41;;;;;;;69.30;29.00;;;;;;;-3.24;84.91;99973.86;219951;1271;22949;-69
2022/01/19 06:24:48;;;;;;;53.00;23.40;;;;;;;-3.27;85.00;99970.66;219732;1271;25562;-69
2022/01/19 06:29:54;;;;;;;61.50;28.30;;;;;;;-3.28;85.14;99961.23;219574;1271;24253;-69
2022/01/19 06:34:57;;;;;;;68.00;29.70;;;;;;;-3.30;85.24;99961.28;219746;1271;24168;-69
2022/01/19 06:39:59;;;;;;;65.80;28.20;;;;;;;-3.29;85.27;99958.75;219718;1271;27647;-69
2022/01/19 06:45:24;;;;;;;50.10;20.50;;;;;;;-3.29;85.35;99950.33;219486;1271;22529;-68
2022/01/19 06:50:31;;;;;;;41.20;19.70;;;;;;;-3.30;85.26;99950.08;219633;1271;24447;-69
2022/01/19 06:56:06;;;;;;;48.60;24.00;;;;;;;-3.31;85.17;99947.89;219359;1271;23995;-69
2022/01/19 07:01:18;;;;;;;49.80;22.90;;;;;;;-3.30;85.44;99945.88;219680;1271;24304;-70
2022/01/19 07:06:41;;;;;;;58.30;27.00;;;;;;;-3.26;85.34;99941.44;218920;1268;22691;-69
2022/01/19 07:12:12;;;;;;;54.00;23.80;;;;;;;-3.21;85.42;99931.14;219360;1271;25495;-71
2022/01/19 07:17:15;;;;;;;51.90;24.70;;;;;;;-3.16;85.50;99926.49;219387;1271;22489;-68
2022/01/19 07:22:29;;;;;;;54.90;25.40;;;;;;;-3.11;85.50;99922.44;219066;1269;22551;-69
2022/01/19 07:27:35;;;;;;;65.30;29.30;;;;;;;-3.04;85.09;99918.41;218842;1270;22782;-69
2022/01/19 07:32:42;;;;;;;52.50;25.00;;;;;;;-2.97;85.20;99900.52;221671;1271;22742;-71
2022/01/19 07:37:48;;;;;;;44.90;22.10;;;;;;;-2.91;85.14;99896.98;222364;1268;25561;-71
2022/01/19 07:43:19;;;;;;;42.80;21.50;;;;;;;-2.82;85.01;99894.98;221510;1268;22705;-72
2022/01/19 07:48:48;;;;;;;48.80;24.50;;;;;;;-2.72;84.98;99888.92;221529;1271;22583;-72
2022/01/19 07:54:09;;;;;;;53.50;25.70;;;;;;;-2.45;84.99;99881.86;221582;1269;22602;-72
2022/01/19 07:59:39;;;;;;;46.90;23.30;;;;;;;-2.35;84.54;99872.28;221762;1270;23387;-72
2022/01/19 08:05:00;;;;;;;44.00;18.90;;;;;;;-2.25;84.55;99864.52;221523;1271;22585;-72
2022/01/19 08:10:29;;;;;;;34.20;16.50;;;;;;;-2.13;84.64;99854.58;221925;1271;23312;-72
2022/01/19 08:15:52;;;;;;;43.50;20.20;;;;;;;-2.04;84.28;99845.30;221546;1268;25621;-71
2022/01/19 08:20:55;;;;;;;32.00;15.10;;;;;;;-1.93;84.07;99840.16;217460;1271;5485425;-72
2022/01/19 08:26:15;;;;;;;29.40;13.60;;;;;;;-1.74;84.08;99837.07;221600;1271;22583;-73
2022/01/19 08:31:21;;;;;;;30.70;15.40;;;;;;;-1.62;83.84;99826.23;221647;1271;27598;-72
2022/01/19 08:36:50;;;;;;;30.30;14.40;;;;;;;-1.53;83.52;99815.27;221497;1271;22649;-73
2022/01/19 08:42:02;;;;;;;31.40;16.00;;;;;;;-1.41;83.56;99801.65;221658;1269;22691;-73
2022/01/19 08:47:08;;;;;;;25.80;13.50;;;;;;;-1.29;83.53;99801.56;221590;1271;23211;-73
2022/01/19 08:52:59;;;;;;;27.10;14.00;;;;;;;-1.17;83.22;99791.97;221798;1268;22744;-72
2022/01/19 08:58:14;;;;;;;27.00;14.90;;;;;;;-1.12;82.98;99783.56;220786;1271;22651;-72
2022/01/19 09:03:23;;;;;;;26.00;11.70;;;;;;;-0.96;82.89;99777.98;221681;1271;23354;-72
2022/01/19 09:08:35;;;;;;;20.00;11.40;;;;;;;-0.87;82.60;99777.04;221632;1271;22605;-72
2022/01/19 09:13:52;;;;;;;22.30;11.30;;;;;;;-0.77;82.33;99774.63;221748;1270;24221;-72
2022/01/19 09:19:13;;;;;;;25.90;12.90;;;;;;;-0.64;82.06;99762.88;221528;1271;22575;-72
2022/01/19 09:25:14;;;;;;;21.40;12.10;;;;;;;-0.53;82.13;99753.84;221885;1271;22587;-72
2022/01/19 09:31:10;;;;;;;;;;;;;;;;;;;;;
2022/01/19 09:37:02;;;;;;;24.30;10.90;;;;;;;-0.13;81.54;99733.83;221809;1268;22507;-73
2022/01/19 09:42:52;;;;;;;23.60;11.20;;;;;;;0.02;81.55;99727.79;221544;1271;22738;-73
2022/01/19 09:48:27;;;;;;;22.20;11.00;;;;;;;0.17;81.18;99720.51;221446;1271;22751;-74
2022/01/19 09:54:47;;;;;;;21.30;10.80;;;;;;;0.21;80.18;99705.45;222055;1271;22718;-73
2022/01/19 09:59:57;;;;;;;17.50;10.10;;;;;;;0.15;80.19;99688.94;221943;1268;22582;-74
2022/01/19 10:05:18;;;;;;;17.50;9.40;;;;;;;0.17;80.81;99674.05;221557;1271;26146;-73
2022/01/19 10:10:26;;;;;;;14.60;7.90;;;;;;;0.29;80.55;99661.29;222000;1268;22554;-74
2022/01/19 10:22:41;;;;;;;14.50;9.10;;;;;;;0.30;80.41;99651.75;221788;1268;26964;-74
2022/01/19 10:28:04;;;;;;;17.50;9.20;;;;;;;0.17;80.20;99653.10;221254;1268;22535;-75
2022/01/19 10:34:16;;;;;;;16.00;10.10;;;;;;;0.09;80.29;99649.75;221868;1271;22942;-74
2022/01/19 10:40:22;;;;;;;17.80;9.60;;;;;;;0.04;80.57;99641.38;221992;1268;22564;-73
2022/01/19 10:45:43;;;;;;;15.60;8.50;;;;;;;0.07;80.76;99631.84;222856;1268;22483;-74
2022/01/19 10:51:12;;;;;;;14.10;8.60;;;;;;;0.18;80.19;99620.50;222267;1269;22551;-74
2022/01/19 10:57:47;;;;;;;17.70;11.80;;;;;;;0.34;80.94;99607.73;221849;1268;24403;-74
2022/01/19 11:04:01;;;;;;;;;;;;;;;;;;;;;
2022/01/19 11:10:20;;;;;;;15.90;9.40;;;;;;;0.76;80.01;99575.16;221582;1269;22543;-73
2022/01/19 11:15:47;;;;;;;12.00;7.70;;;;;;;0.88;79.92;99561.71;221584;1268;24278;-73
2022/01/19 11:21:44;;;;;;;16.00;8.60;;;;;;;0.89;79.29;99546.17;221434;1271;22547;-74
2022/01/19 11:27:23;;;;;;;;;;;;;;;;;;;;;
2022/01/19 11:33:51;;;;;;;;;;;;;;;;;;;;;
2022/01/19 11:39:30;;;;;;;13.90;7.90;;;;;;;1.09;78.95;99501.02;221379;1268;22705;-74
2022/01/19 11:44:33;;;;;;;13.20;7.60;;;;;;;1.14;79.00;99494.64;221349;1269;22563;-74
2022/01/19 11:50:15;;;;;;;12.40;6.80;;;;;;;1.20;78.61;99489.85;221709;1268;24829;-74
2022/01/19 11:56:43;;;;;;;12.00;6.60;;;;;;;1.36;78.74;99466.16;221292;1268;26354;-74
2022/01/19 12:01:46;;;;;;;11.80;6.80;;;;;;;1.42;77.71;99450.33;221222;1268;22565;-74
2022/01/19 12:06:58;;;;;;;11.70;7.20;;;;;;;1.43;77.99;99445.36;221374;1268;22653;-73
2022/01/19 12:12:17;;;;;;;10.90;6.10;;;;;;;1.48;77.71;99426.29;221119;1269;24218;-74
2022/01/19 12:17:43;;;;;;;12.40;6.00;;;;;;;1.53;77.54;99408.77;221367;1268;24624;-73
2022/01/19 12:23:15;;;;;;;9.50;5.50;;;;;;;1.62;77.29;99400.07;220749;1271;25352;-73
2022/01/19 12:29:04;;;;;;;11.00;6.10;;;;;;;1.63;76.51;99397.37;221136;1268;22564;-73
2022/01/19 12:34:23;;;;;;;11.00;6.50;;;;;;;1.75;76.75;99380.67;221204;1267;23019;-73
2022/01/19 12:39:34;;;;;;;9.80;6.10;;;;;;;1.83;76.14;99359.74;221203;1271;22912;-73
2022/01/19 12:44:54;;;;;;;11.60;6.30;;;;;;;1.90;76.18;99346.29;220972;1270;23085;-73
2022/01/19 12:50:18;;;;;;;9.50;5.50;;;;;;;2.01;75.99;99337.20;221306;1268;22613;-73
2022/01/19 12:55:41;;;;;;;9.60;5.70;;;;;;;2.09;75.82;99323.82;220710;1271;25324;-73
2022/01/19 13:01:30;;;;;;;12.70;6.10;;;;;;;2.09;74.46;99315.23;221216;1271;22621;-72
2022/01/19 13:07:31;;;;;;;9.20;5.90;;;;;;;2.00;73.91;99305.37;221517;1271;22694;-73
2022/01/19 13:13:39;;;;;;;;;;;;;;;;;;;;;
2022/01/19 13:19:07;;;;;;;16.50;6.30;;;;;;;1.95;72.22;99287.14;221768;1271;23403;-74
2022/01/19 13:24:34;;;;;;;9.20;5.40;;;;;;;1.97;72.92;99279.80;221462;1268;25432;-73
2022/01/19 13:31:03;;;;;;;;;;;;;;;;;;;;;
2022/01/19 13:36:36;;;;;;;11.90;6.50;;;;;;;2.10;72.81;99267.16;221967;1270;22583;-75
2022/01/19 13:42:01;;;;;;;10.90;6.20;;;;;;;2.06;71.95;99260.35;221760;1268;22576;-73
2022/01/19 13:47:30;;;;;;;12.60;6.20;;;;;;;2.01;72.04;99244.17;221571;1270;22541;-74
2022/01/19 13:52:53;;;;;;;10.40;6.00;;;;;;;2.00;72.88;99236.55;221319;1271;23365;-73
2022/01/19 13:58:12;;;;;;;10.60;5.70;;;;;;;2.00;72.41;99231.63;221521;1268;22735;-74
2022/01/19 14:03:44;;;;;;;9.80;5.70;;;;;;;1.94;72.17;99223.80;221772;1268;22727;-73
2022/01/19 14:08:47;;;;;;;16.50;6.80;;;;;;;1.87;72.48;99209.81;222241;1268;22574;-72
2022/01/19 14:14:07;;;;;;;10.90;6.40;;;;;;;1.80;71.58;99199.73;221819;1268;22697;-73
2022/01/19 14:19:46;;;;;;;12.80;6.80;;;;;;;1.72;71.75;99194.02;222346;1268;22577;-73
2022/01/19 14:25:10;;;;;;;16.10;6.70;;;;;;;1.63;71.95;99182.44;221274;1270;22628;-73
2022/01/19 14:30:29;;;;;;;13.50;6.70;;;;;;;1.56;72.03;99171.14;221733;1267;22563;-73
2022/01/19 14:35:51;;;;;;;17.80;6.80;;;;;;;1.49;71.77;99172.14;221862;1268;24233;-73
2022/01/19 14:41:08;;;;;;;11.60;6.50;;;;;;;1.40;71.73;99162.23;221744;1268;22696;-73
2022/01/19 14:46:25;;;;;;;10.50;6.70;;;;;;;1.31;71.57;99150.99;222758;1268;22938;-72
2022/01/19 14:51:31;;;;;;;14.30;7.00;;;;;;;1.20;71.81;99146.06;222063;1268;22722;-71
2022/01/19 14:56:53;;;;;;;13.10;7.10;;;;;;;1.06;72.30;99132.77;221778;1268;22554;-71
2022/01/19 15:02:09;;;;;;;;;;;;;;;;;;;;;
2022/01/19 15:12:38;;;;;;;18.00;7.30;;;;;;;0.63;73.78;99116.32;220787;1270;22741;-72
2022/01/19 15:17:52;;;;;;;13.20;6.60;;;;;;;0.51;74.23;99112.52;220856;1270;22621;-72
2022/01/19 15:23:43;;;;;;;;;;;;;;;;;;;;;
2022/01/19 15:29:08;;;;;;;12.60;7.10;;;;;;;0.30;75.06;99082.85;220363;1271;22711;-72
2022/01/19 15:34:13;;;;;;;15.30;7.20;;;;;;;0.20;75.56;99076.43;220290;1271;22623;-71
2022/01/19 15:39:36;;;;;;;14.70;7.70;;;;;;;0.14;75.83;99070.27;220183;1271;25306;-72
2022/01/19 15:44:59;;;;;;;15.70;8.10;;;;;;;0.06;76.15;99070.27;220831;1270;22581;-72
2022/01/19 15:50:13;;;;;;;17.60;8.30;;;;;;;0.01;76.42;99069.67;220782;1270;25251;-71
2022/01/19 15:55:18;;;;;;;17.00;9.50;;;;;;;-0.02;76.65;99071.42;221077;1269;22558;-72
2022/01/19 16:00:44;;;;;;;15.90;8.00;;;;;;;-0.07;76.71;99064.45;220895;1271;24278;-73
2022/01/19 16:11:26;;;;;;;18.00;7.50;;;;;;;-0.14;77.26;99033.13;220285;1271;24251;-72
2022/01/19 16:16:34;;;;;;;14.50;9.00;;;;;;;-0.19;77.39;99024.13;220819;1270;24777;-72
2022/01/19 16:21:57;;;;;;;20.00;8.40;;;;;;;-0.23;77.69;99010.20;220898;1270;24755;-72
2022/01/19 16:27:12;;;;;;;16.90;8.10;;;;;;;-0.20;77.92;99001.80;220812;1271;22547;-73
2022/01/19 16:32:22;;;;;;;15.60;7.60;;;;;;;-0.20;78.20;98984.66;220807;1271;24342;-72
2022/01/19 16:37:47;;;;;;;19.00;8.50;;;;;;;-0.13;78.47;98969.88;220835;1271;22566;-72
2022/01/19 16:43:05;;;;;;;15.50;7.20;;;;;;;-0.07;78.19;98957.83;221081;1271;22914;-72
2022/01/19 16:48:16;;;;;;;17.30;7.60;;;;;;;-0.06;78.05;98953.70;220910;1271;25555;-73
2022/01/19 16:54:18;;;;;;;15.30;8.50;;;;;;;-0.09;78.01;98944.25;220910;1271;22557;-72
2022/01/19 16:59:26;;;;;;;14.50;7.40;;;;;;;-0.09;78.11;98931.96;220968;1269;22548;-72
2022/01/19 17:05:08;;;;;;;;;;;;;;;;;;;;;
2022/01/19 17:11:11;;;;;;;14.50;6.80;;;;;;;-0.02;78.06;98911.53;220838;1271;22595;-73
2022/01/19 17:16:44;;;;;;;;;;;;;;;;;;;;;
2022/01/19 17:21:53;;;;;;;19.80;9.50;;;;;;;-0.03;77.77;98910.94;220821;1270;24354;-71
2022/01/19 17:27:21;;;;;;;20.10;8.90;;;;;;;-0.07;78.12;98906.39;220458;1271;24321;-71
2022/01/19 17:32:53;;;;;;;19.10;9.20;;;;;;;-0.13;78.02;98897.88;220770;1269;24296;-71
2022/01/19 17:38:11;;;;;;;19.00;9.70;;;;;;;-0.20;78.18;98884.65;220783;1271;22545;-73
2022/01/19 17:43:18;;;;;;;16.70;9.00;;;;;;;-0.19;78.31;98870.88;220930;1271;22881;-72
2022/01/19 17:49:19;;;;;;;17.00;8.20;;;;;;;-0.19;78.18;98863.98;220939;1271;25398;-72
2022/01/19 17:54:06;;;;;;;22.80;9.20;;;;;;;-0.21;78.27;98858.62;220605;1271;26825;-73
2022/01/19 17:59:31;;;;;;;18.40;9.50;;;;;;;-0.27;78.52;98835.94;220341;1273;22537;-72
2022/01/19 18:04:52;;;;;;;25.00;10.70;;;;;;;-0.30;78.32;98810.98;220470;1271;25313;-71
2022/01/19 18:09:55;;;;;;;19.70;9.00;;;;;;;-0.31;78.49;98807.91;220570;1271;23866;-72
2022/01/19 18:15:02;;;;;;;17.30;8.70;;;;;;;-0.30;78.22;98801.29;220993;1271;25597;-72
2022/01/19 18:20:10;;;;;;;16.20;8.60;;;;;;;-0.32;78.31;98785.80;221086;1269;22662;-71
2022/01/19 18:25:15;;;;;;;17.10;8.10;;;;;;;-0.35;78.21;98776.67;220717;1270;22563;-73
2022/01/19 18:30:38;;;;;;;17.00;8.40;;;;;;;-0.32;78.03;98760.49;220886;1271;23388;-71
2022/01/19 18:36:21;;;;;;;16.10;7.00;;;;;;;-0.29;77.91;98757.72;220591;1271;22539;-71
2022/01/19 18:41:55;;;;;;;17.60;6.90;;;;;;;-0.25;77.48;98745.64;220771;1271;24240;-71
2022/01/19 18:46:57;;;;;;;13.00;6.10;;;;;;;-0.20;77.25;98742.75;220825;1270;24241;-71
2022/01/19 18:52:00;;;;;;;19.30;8.00;;;;;;;-0.19;77.35;98734.28;221024;1270;22573;-72
2022/01/19 18:57:05;;;;;;;15.10;8.00;;;;;;;-0.21;77.09;98723.96;220731;1269;22547;-72
2022/01/19 19:02:10;;;;;;;17.30;8.10;;;;;;;-0.22;77.30;98710.13;220688;1271;25351;-72
2022/01/19 19:07:15;;;;;;;16.70;8.80;;;;;;;-0.26;76.99;98705.27;220820;1271;22552;-72
2022/01/19 19:12:19;;;;;;;17.00;8.00;;;;;;;-0.32;76.83;98706.06;221155;1271;22619;-71
2022/01/19 19:17:22;;;;;;;19.30;9.50;;;;;;;-0.35;77.01;98703.95;220991;1271;23115;-73
2022/01/19 19:22:25;;;;;;;21.20;9.60;;;;;;;-0.40;76.71;98703.08;220177;1271;25353;-73
2022/01/19 19:27:30;;;;;;;23.60;9.80;;;;;;;-0.46;76.98;98700.41;220294;1271;25365;-73
2022/01/19 19:32:38;;;;;;;22.40;9.70;;;;;;;-0.50;76.84;98714.42;220323;1271;26470;-72
2022/01/19 19:37:43;;;;;;;26.70;10.90;;;;;;;-0.56;76.67;98701.88;220161;1271;25392;-73
2022/01/19 19:42:46;;;;;;;21.10;9.20;;;;;;;-0.59;77.20;98690.79;220779;1270;25469;-71
2022/01/19 19:48:10;;;;;;;21.90;9.30;;;;;;;-0.58;77.00;98686.60;220322;1271;22584;-71
2022/01/19 19:53:17;;;;;;;23.40;9.30;;;;;;;-0.53;76.88;98676.71;220329;1271;24612;-72
2022/01/19 19:58:19;;;;;;;15.40;7.60;;;;;;;-0.50;77.04;98660.57;220282;1271;22563;-71
2022/01/19 20:03:35;;;;;;;;;;;;;;;;;;;;;
2022/01/19 20:08:38;;;;;;;22.10;9.80;;;;;;;-0.48;77.01;98646.95;220073;1271;25479;-70
2022/01/19 20:13:49;;;;;;;18.10;9.20;;;;;;;-0.51;77.34;98635.69;220577;1269;22563;-71
2022/01/19 20:19:00;;;;;;;20.10;8.90;;;;;;;-0.55;77.21;98629.33;219889;1271;442217;-71
2022/01/19 20:24:14;;;;;;;20.40;8.70;;;;;;;-0.59;77.27;98623.55;220261;1271;22780;-71
2022/01/19 20:29:36;;;;;;;21.00;8.90;;;;;;;-0.62;77.77;98619.29;220369;1271;22687;-72
2022/01/19 20:34:44;;;;;;;14.80;7.20;;;;;;;-0.64;77.95;98611.38;220649;1271;25251;-70
2022/01/19 20:40:19;;;;;;;16.40;8.30;;;;;;;-0.67;78.31;98605.25;219763;1269;22551;-71
2022/01/19 20:45:35;;;;;;;17.80;8.70;;;;;;;-0.68;78.27;98607.17;220492;1271;22550;-71
2022/01/19 20:50:49;;;;;;;19.30;9.60;;;;;;;-0.72;78.08;98613.36;220249;1271;26454;-71
2022/01/19 20:55:57;;;;;;;20.10;9.20;;;;;;;-0.78;78.30;98609.94;220678;1271;22679;-72
2022/01/19 21:06:34;;;;;;;22.50;10.70;;;;;;;-0.84;78.67;98613.16;220323;1271;22749;-71
2022/01/19 21:11:41;;;;;;;21.20;10.40;;;;;;;-0.82;78.66;98626.23;220605;1270;25418;-72
2022/01/19 21:16:56;;;;;;;21.30;10.20;;;;;;;-0.83;78.69;98627.40;220780;1271;22978;-72
2022/01/19 21:21:59;;;;;;;21.50;9.70;;;;;;;-0.83;78.73;98622.46;220361;1271;24149;-72
2022/01/19 21:27:14;;;;;;;23.00;10.70;;;;;;;-0.80;78.76;98610.13;220687;1269;22645;-71
2022/01/19 21:32:37;;;;;;;17.30;7.70;;;;;;;-0.76;78.88;98590.52;220662;1269;22636;-71
2022/01/19 21:37:50;;;;;;;;;;;;;;;;;;;;;
2022/01/19 21:43:33;;;;;;;17.70;8.60;;;;;;;-0.61;78.89;98543.22;220659;1271;22477;-72
2022/01/19 21:48:50;;;;;;;19.10;9.10;;;;;;;-0.62;78.96;98536.76;220905;1270;24938;-72
2022/01/19 21:53:52;;;;;;;19.40;8.50;;;;;;;-0.62;78.81;98538.57;220684;1271;22634;-72
2022/01/19 21:59:04;;;;;;;18.90;9.40;;;;;;;-0.64;78.98;98529.73;220680;1271;24282;-73
2022/01/19 22:04:06;;;;;;;17.10;8.60;;;;;;;-0.60;79.05;98540.89;220768;1271;24237;-72
2022/01/19 22:09:25;;;;;;;18.70;8.50;;;;;;;-0.48;79.10;98534.47;220584;1270;22554;-72
2022/01/19 22:14:48;;;;;;;18.00;9.10;;;;;;;-0.32;78.90;98529.05;220890;1271;22938;-72
2022/01/19 22:19:54;;;;;;;16.70;8.80;;;;;;;-0.21;78.62;98525.50;220588;1271;22596;-72
2022/01/19 22:25:27;;;;;;;20.80;9.30;;;;;;;-0.11;78.58;98514.83;220192;1271;27461;-72
2022/01/19 22:30:30;;;;;;;21.30;9.50;;;;;;;0.01;78.22;98510.23;220784;1271;24298;-72
2022/01/19 22:36:06;;;;;;;;;;;;;;;;;;;;;
2022/01/19 22:41:10;;;;;;;14.50;8.30;;;;;;;0.26;77.87;98528.53;221057;1271;22774;-72
2022/01/19 22:46:24;;;;;;;;;;;;;;;;;;;;;
2022/01/19 22:51:52;;;;;;;17.30;8.70;;;;;;;0.36;77.45;98504.05;220737;1270;22543;-71
2022/01/19 22:57:49;;;;;;;18.00;8.40;;;;;;;0.38;77.59;98486.23;220535;1271;22630;-72
2022/01/19 23:03:13;;;;;;;17.70;9.10;;;;;;;0.38;77.59;98481.23;220837;1271;22540;-72
2022/01/19 23:08:33;;;;;;;19.80;10.10;;;;;;;0.39;77.60;98476.19;221016;1271;22649;-71
2022/01/19 23:13:49;;;;;;;18.70;9.90;;;;;;;0.43;77.68;98475.50;220938;1271;22564;-71
2022/01/19 23:24:54;;;;;;;17.10;9.20;;;;;;;0.52;77.75;98459.14;220740;1271;22541;-72
2022/01/19 23:30:01;;;;;;;18.30;10.40;;;;;;;0.55;77.63;98456.48;220752;1271;24788;-71
2022/01/19 23:35:07;;;;;;;19.10;10.00;;;;;;;0.54;77.75;98457.65;220828;1271;24371;-71
2022/01/19 23:51:31;;;;;;;14.60;8.80;;;;;;;0.51;77.98;98446.78;220900;1271;22719;-71
